Time;durP1;ratioP1;P1;durP2;ratioP2;P2;SDS_P1;SDS_P2;PMS_P1;PMS_P2;Temp;Humidity;BMP_temperature;BMP_pressure;BME280_temperature;BME280_humidity;BME280_pressure;Samples;Min_cycle;Max_cycle;Signal;HPM_P1;HPM_P2
2022/10/07 00:02:19;;;;;;;;;;;13.50;99.90;;;;;;5109099;28;19924;-55
2022/10/07 00:04:47;;;;;;;;;;;13.50;99.90;;;;;;5094424;28;20249;-56
2022/10/07 00:07:14;;;;;;;;;;;13.50;99.90;;;;;;5072811;28;19931;-55
2022/10/07 00:09:42;;;;;;;;;;;13.50;99.90;;;;;;5079847;28;19928;-56
2022/10/07 00:12:10;;;;;;;;;;;13.50;99.90;;;;;;5087902;28;19942;-56
2022/10/07 00:14:38;;;;;;;;;;;13.50;99.90;;;;;;5089042;28;20286;-56
2022/10/07 00:17:05;;;;;;;;;;;13.50;99.90;;;;;;5086215;28;19931;-56
2022/10/07 00:19:33;;;;;;;;;;;13.40;99.90;;;;;;5081938;28;19928;-56
2022/10/07 00:22:00;;;;;;;;;;;13.40;99.90;;;;;;5082670;28;19924;-56
2022/10/07 00:24:27;;;;;;;;;;;13.40;99.90;;;;;;5102445;28;19931;-57
2022/10/07 00:26:55;;;;;;;;;;;13.30;99.90;;;;;;5075532;28;19932;-56
2022/10/07 00:29:23;;;;;;;;;;;13.30;99.90;;;;;;5071260;28;19924;-56
2022/10/07 00:31:51;;;;;;;;;;;13.30;99.90;;;;;;5081873;28;19932;-57
2022/10/07 00:34:24;;;;;;;;;;;13.30;99.90;;;;;;5081533;28;19924;-56
2022/10/07 00:36:51;;;;;;;;;;;13.30;99.90;;;;;;5073740;28;19931;-55
2022/10/07 00:39:19;;;;;;;;;;;13.30;99.90;;;;;;5071278;28;19932;-56
2022/10/07 00:41:49;;;;;;;;;;;13.30;99.90;;;;;;5087457;28;20407;-56
2022/10/07 00:44:37;;;;;;;;;;;13.30;99.90;;;;;;5090179;28;19928;-56
2022/10/07 00:47:11;;;;;;;;;;;13.40;99.90;;;;;;5090672;28;20732;-55
2022/10/07 00:49:44;;;;;;;;;;;13.40;99.90;;;;;;5088121;28;19924;-56
2022/10/07 00:52:13;;;;;;;;;;;13.30;99.90;;;;;;5088934;28;19924;-56
2022/10/07 00:54:41;;;;;;;;;;;13.30;99.90;;;;;;5084886;28;19924;-56
2022/10/07 00:57:09;;;;;;;;;;;13.30;99.90;;;;;;5069529;28;19935;-56
2022/10/07 00:59:38;;;;;;;;;;;13.30;99.90;;;;;;5078146;28;20265;-55
2022/10/07 01:02:07;;;;;;;;;;;13.30;99.90;;;;;;5068128;28;19928;-56
2022/10/07 01:04:35;;;;;;;;;;;13.30;99.90;;;;;;5068677;28;19931;-55
2022/10/07 01:07:03;;;;;;;;;;;13.20;99.90;;;;;;5073186;28;19939;-56
2022/10/07 01:09:30;;;;;;;;;;;13.20;99.90;;;;;;5090035;28;20287;-56
2022/10/07 01:12:03;;;;;;;;;;;13.20;99.90;;;;;;5089058;28;20295;-56
2022/10/07 01:14:45;;;;;;;;;;;13.20;99.90;;;;;;5099734;28;19924;-56
2022/10/07 01:17:21;;;;;;;;;;;13.10;99.90;;;;;;5070904;28;19936;-55
2022/10/07 01:19:53;;;;;;;;;;;13.10;99.90;;;;;;5069456;28;20407;-55
2022/10/07 01:22:21;;;;;;;;;;;13.10;99.90;;;;;;5070326;28;19991;-56
2022/10/07 01:25:01;;;;;;;;;;;13.10;99.90;;;;;;5076588;28;19924;-56
2022/10/07 01:27:29;;;;;;;;;;;13.10;99.90;;;;;;5070279;28;20323;-56
2022/10/07 01:30:02;;;;;;;;;;;13.10;99.90;;;;;;5080277;28;19924;-56
2022/10/07 01:32:32;;;;;;;;;;;13.10;99.90;;;;;;5071886;28;19925;-56
2022/10/07 01:35:04;;;;;;;;;;;13.10;99.90;;;;;;5053753;28;19933;-56
2022/10/07 01:37:35;;;;;;;;;;;13.10;99.90;;;;;;5071419;28;19929;-56
2022/10/07 01:40:06;;;;;;;;;;;13.10;99.90;;;;;;5056326;28;19935;-55
2022/10/07 01:42:34;;;;;;;;;;;13.10;99.90;;;;;;5055884;28;19932;-55
2022/10/07 01:45:02;;;;;;;;;;;13.10;99.90;;;;;;5104893;28;19924;-56
2022/10/07 01:47:29;;;;;;;;;;;13.10;99.90;;;;;;5073718;28;19925;-55
2022/10/07 01:49:56;;;;;;;;;;;13.00;99.90;;;;;;5091967;28;19939;-55
2022/10/07 01:52:34;;;;;;;;;;;13.00;99.90;;;;;;5089503;28;19924;-55
2022/10/07 01:55:16;;;;;;;;;;;13.00;99.90;;;;;;5071231;28;19931;-55
2022/10/07 01:58:05;;;;;;;;;;;13.00;99.90;;;;;;5081226;28;19947;-55
2022/10/07 02:00:37;;;;;;;;;;;13.00;99.90;;;;;;5092280;28;19925;-56
2022/10/07 02:03:24;;;;;;;;;;;13.00;99.90;;;;;;5074807;28;19935;-55
2022/10/07 02:05:59;;;;;;;;;;;12.90;99.90;;;;;;5089767;28;19928;-55
2022/10/07 02:08:49;;;;;;;;;;;12.90;99.90;;;;;;5086179;28;19925;-55
2022/10/07 02:11:16;;;;;;;;;;;12.90;99.90;;;;;;5093265;28;20375;-55
2022/10/07 02:13:54;;;;;;;;;;;12.90;99.90;;;;;;5099135;28;19930;-55
2022/10/07 02:16:27;;;;;;;;;;;12.80;99.90;;;;;;5069165;28;20395;-55
2022/10/07 02:18:55;;;;;;;;;;;12.80;99.90;;;;;;5086597;28;19931;-55
2022/10/07 02:21:25;;;;;;;;;;;12.80;99.90;;;;;;5071531;28;19925;-55
2022/10/07 02:23:54;;;;;;;;;;;12.80;99.90;;;;;;5071610;28;19935;-55
2022/10/07 02:26:23;;;;;;;;;;;12.70;99.90;;;;;;5082279;28;20283;-55
2022/10/07 02:28:52;;;;;;;;;;;12.70;99.90;;;;;;5082744;28;20319;-55
2022/10/07 02:31:22;;;;;;;;;;;12.70;99.90;;;;;;5071624;28;19924;-56
2022/10/07 02:33:52;;;;;;;;;;;12.70;99.90;;;;;;5080226;28;19928;-56
2022/10/07 02:36:23;;;;;;;;;;;12.70;99.90;;;;;;5088484;28;19924;-55
2022/10/07 02:38:51;;;;;;;;;;;12.70;99.90;;;;;;5085638;28;19924;-56
2022/10/07 02:41:30;;;;;;;;;;;12.70;99.90;;;;;;5087319;28;19931;-56
2022/10/07 02:44:16;;;;;;;;;;;12.70;99.90;;;;;;5066853;28;20300;-56
2022/10/07 02:46:50;;;;;;;;;;;12.70;99.90;;;;;;5069669;28;19924;-56
2022/10/07 02:49:19;;;;;;;;;;;12.70;99.90;;;;;;5070966;28;19929;-56
2022/10/07 02:51:50;;;;;;;;;;;12.80;99.90;;;;;;5069059;28;20319;-56
2022/10/07 02:54:19;;;;;;;;;;;12.80;99.90;;;;;;5079415;28;19924;-56
2022/10/07 02:56:47;;;;;;;;;;;12.80;99.90;;;;;;5068475;28;19925;-56
2022/10/07 02:59:16;;;;;;;;;;;12.80;99.90;;;;;;5088289;28;19924;-56
2022/10/07 03:01:45;;;;;;;;;;;12.80;99.90;;;;;;5081145;28;19924;-56
2022/10/07 03:04:14;;;;;;;;;;;12.70;99.90;;;;;;5067780;28;20296;-55
2022/10/07 03:06:42;;;;;;;;;;;12.80;99.90;;;;;;5074445;28;19924;-56
2022/10/07 03:09:10;;;;;;;;;;;12.80;99.90;;;;;;5089770;28;19924;-56
2022/10/07 03:11:37;;;;;;;;;;;12.70;99.90;;;;;;5108212;28;20291;-56
2022/10/07 03:14:05;;;;;;;;;;;12.70;99.90;;;;;;5094880;28;19924;-56
2022/10/07 03:16:34;;;;;;;;;;;12.70;99.90;;;;;;5070831;28;19925;-56
2022/10/07 03:19:02;;;;;;;;;;;12.80;99.90;;;;;;5071108;28;19925;-56
2022/10/07 03:22:01;;;;;;;;;;;12.80;99.90;;;;;;5039132;28;19931;-56
2022/10/07 03:24:32;;;;;;;;;;;12.80;99.90;;;;;;5044896;28;19931;-56
2022/10/07 03:26:59;;;;;;;;;;;12.80;99.90;;;;;;5047444;28;19925;-55
2022/10/07 03:29:29;;;;;;;;;;;12.80;99.90;;;;;;5042384;28;19929;-56
2022/10/07 03:31:56;;;;;;;;;;;12.80;99.90;;;;;;5035142;28;19935;-56
2022/10/07 03:34:26;;;;;;;;;;;12.80;99.90;;;;;;5011194;28;20391;-56
2022/10/07 03:36:54;;;;;;;;;;;12.80;99.90;;;;;;5037400;28;19929;-56
2022/10/07 03:39:22;;;;;;;;;;;12.80;99.90;;;;;;5050852;28;19940;-56
2022/10/07 03:41:50;;;;;;;;;;;12.80;99.90;;;;;;5049869;28;20318;-56
2022/10/07 03:44:18;;;;;;;;;;;12.80;99.90;;;;;;5031478;28;19966;-56
2022/10/07 03:46:50;;;;;;;;;;;12.70;99.90;;;;;;5027334;28;20296;-57
2022/10/07 03:49:19;;;;;;;;;;;12.70;99.90;;;;;;5031918;28;19925;-56
2022/10/07 03:51:46;;;;;;;;;;;12.60;99.90;;;;;;5049631;28;19932;-56
2022/10/07 03:54:14;;;;;;;;;;;12.60;99.90;;;;;;5039781;28;19936;-56
2022/10/07 03:56:41;;;;;;;;;;;12.60;99.90;;;;;;5031996;28;20702;-56
2022/10/07 03:59:09;;;;;;;;;;;12.60;99.90;;;;;;5037142;28;20642;-56
2022/10/07 04:01:37;;;;;;;;;;;12.60;99.90;;;;;;5072100;28;20382;-56
2022/10/07 04:04:06;;;;;;;;;;;12.50;99.90;;;;;;5064915;28;19935;-56
2022/10/07 04:06:36;;;;;;;;;;;12.50;99.90;;;;;;5038222;28;19932;-56
2022/10/07 04:09:11;;;;;;;;;;;12.40;99.90;;;;;;5044577;28;19940;-56
2022/10/07 04:11:40;;;;;;;;;;;12.40;99.90;;;;;;5063097;28;19932;-56
2022/10/07 04:14:08;;;;;;;;;;;12.30;99.90;;;;;;5049534;28;19929;-56
2022/10/07 04:16:37;;;;;;;;;;;12.40;99.90;;;;;;5050863;28;20416;-56
2022/10/07 04:19:07;;;;;;;;;;;12.40;99.90;;;;;;5034010;28;19936;-56
2022/10/07 04:21:35;;;;;;;;;;;12.30;99.90;;;;;;5068791;28;19924;-56
2022/10/07 04:24:03;;;;;;;;;;;12.30;99.90;;;;;;5085495;28;20372;-56
2022/10/07 04:26:31;;;;;;;;;;;12.30;99.90;;;;;;5054336;28;19935;-56
2022/10/07 04:28:58;;;;;;;;;;;12.30;99.90;;;;;;5087760;28;19936;-56
2022/10/07 04:31:27;;;;;;;;;;;12.20;99.90;;;;;;5097626;28;19932;-56
2022/10/07 04:34:02;;;;;;;;;;;12.20;99.90;;;;;;5087466;28;19925;-56
2022/10/07 04:36:34;;;;;;;;;;;12.20;99.90;;;;;;5100474;27;19928;-55
2022/10/07 04:39:06;;;;;;;;;;;12.20;99.90;;;;;;5085955;28;19924;-55
2022/10/07 04:41:36;;;;;;;;;;;12.00;99.90;;;;;;5110846;28;20286;-56
2022/10/07 04:44:08;;;;;;;;;;;12.20;99.90;;;;;;5086727;28;19928;-56
2022/10/07 04:46:42;;;;;;;;;;;12.20;99.90;;;;;;5084832;28;20388;-55
2022/10/07 04:49:13;;;;;;;;;;;12.10;99.90;;;;;;5093449;28;19924;-55
2022/10/07 04:51:41;;;;;;;;;;;12.10;99.90;;;;;;5082730;28;19924;-55
2022/10/07 04:54:08;;;;;;;;;;;12.10;99.90;;;;;;5088366;28;19928;-56
2022/10/07 04:56:47;;;;;;;;;;;12.00;99.90;;;;;;5088620;28;19932;-56
2022/10/07 04:59:15;;;;;;;;;;;12.00;99.90;;;;;;5081729;28;19928;-55
2022/10/07 05:01:43;;;;;;;;;;;12.00;99.90;;;;;;5105506;28;19928;-56
2022/10/07 05:04:12;;;;;;;;;;;11.90;99.90;;;;;;5066409;28;19923;-56
2022/10/07 05:06:39;;;;;;;;;;;12.00;99.90;;;;;;5067979;28;19924;-56
2022/10/07 05:09:09;;;;;;;;;;;11.90;99.90;;;;;;5085065;28;19935;-56
2022/10/07 05:11:40;;;;;;;;;;;11.90;99.90;;;;;;5090513;28;19948;-55
2022/10/07 05:14:13;;;;;;;;;;;11.90;99.90;;;;;;5094333;28;19927;-56
2022/10/07 05:16:40;;;;;;;;;;;11.90;99.90;;;;;;5091218;28;19924;-56
2022/10/07 05:19:09;;;;;;;;;;;11.90;99.90;;;;;;5071684;28;19929;-56
2022/10/07 05:21:38;;;;;;;;;;;11.90;99.90;;;;;;5088966;28;19935;-56
2022/10/07 05:24:05;;;;;;;;;;;11.90;99.90;;;;;;5087447;28;19924;-56
2022/10/07 05:26:36;;;;;;;;;;;11.80;99.90;;;;;;5082620;28;19943;-55
2022/10/07 05:29:06;;;;;;;;;;;11.90;99.90;;;;;;5065869;28;19928;-56
2022/10/07 05:31:42;;;;;;;;;;;11.90;99.90;;;;;;5067084;28;19924;-55
2022/10/07 05:34:11;;;;;;;;;;;11.90;99.90;;;;;;5087388;28;19928;-55
2022/10/07 05:36:39;;;;;;;;;;;11.90;99.90;;;;;;5080842;28;20323;-56
2022/10/07 05:39:07;;;;;;;;;;;11.90;99.90;;;;;;5073693;28;20310;-55
2022/10/07 05:41:59;;;;;;;;;;;11.90;99.90;;;;;;5070163;28;19932;-56
2022/10/07 05:44:32;;;;;;;;;;;11.90;99.90;;;;;;5085182;28;19928;-55
2022/10/07 05:47:03;;;;;;;;;;;11.90;99.90;;;;;;5070321;28;20372;-56
2022/10/07 05:49:31;;;;;;;;;;;11.90;99.90;;;;;;5070252;28;20083;-55
2022/10/07 05:51:59;;;;;;;;;;;11.90;99.90;;;;;;5082592;28;20128;-55
2022/10/07 05:54:31;;;;;;;;;;;11.90;99.90;;;;;;5083125;28;19924;-56
2022/10/07 05:56:59;;;;;;;;;;;11.80;99.90;;;;;;5066711;28;19929;-56
2022/10/07 05:59:27;;;;;;;;;;;11.90;99.90;;;;;;5068108;28;19924;-55
2022/10/07 06:01:56;;;;;;;;;;;11.90;99.90;;;;;;5054162;28;19928;-56
2022/10/07 06:04:25;;;;;;;;;;;11.90;99.90;;;;;;5077813;28;19925;-56
2022/10/07 06:06:53;;;;;;;;;;;11.90;99.90;;;;;;5049367;28;20295;-58
2022/10/07 06:15:04;;;;;;;;;;;11.90;99.90;;;;;;5090925;28;19932;-56
2022/10/07 06:17:32;;;;;;;;;;;12.00;99.90;;;;;;5082460;28;20398;-60
2022/10/07 06:20:05;;;;;;;;;;;12.00;99.90;;;;;;5072506;28;20265;-56
2022/10/07 06:22:33;;;;;;;;;;;12.00;99.90;;;;;;5083896;28;19924;-55
2022/10/07 06:25:01;;;;;;;;;;;12.00;99.90;;;;;;5083879;28;19924;-56
2022/10/07 06:27:31;;;;;;;;;;;12.10;99.90;;;;;;5081941;28;20105;-55
2022/10/07 06:29:58;;;;;;;;;;;12.10;99.90;;;;;;5067835;28;19929;-55
2022/10/07 06:32:31;;;;;;;;;;;12.20;99.90;;;;;;5077148;28;20427;-55
2022/10/07 06:35:00;;;;;;;;;;;12.20;99.90;;;;;;5088115;28;19931;-55
2022/10/07 06:37:31;;;;;;;;;;;12.20;99.90;;;;;;5065099;28;19928;-55
2022/10/07 06:39:59;;;;;;;;;;;12.30;99.90;;;;;;5091986;28;19928;-55
2022/10/07 06:42:30;;;;;;;;;;;12.30;99.90;;;;;;5092383;28;19929;-55
2022/10/07 06:45:18;;;;;;;;;;;12.30;99.90;;;;;;5061616;28;19947;-55
2022/10/07 06:47:47;;;;;;;;;;;12.30;99.90;;;;;;5074590;28;20631;-56
2022/10/07 06:50:15;;;;;;;;;;;12.30;99.90;;;;;;5080885;28;20311;-55
2022/10/07 06:52:43;;;;;;;;;;;12.30;99.90;;;;;;5072749;28;19928;-55
2022/10/07 06:55:10;;;;;;;;;;;12.30;99.90;;;;;;5065311;28;19924;-55
2022/10/07 06:57:39;;;;;;;;;;;12.40;99.90;;;;;;5067948;28;19928;-55
2022/10/07 07:00:23;;;;;;;;;;;12.40;99.90;;;;;;5063384;28;19929;-56
2022/10/07 07:02:50;;;;;;;;;;;12.40;99.90;;;;;;5072709;28;20415;-55
2022/10/07 07:05:19;;;;;;;;;;;12.50;99.90;;;;;;5069349;28;20343;-55
2022/10/07 07:07:47;;;;;;;;;;;12.50;99.90;;;;;;5067330;28;19924;-55
2022/10/07 07:10:16;;;;;;;;;;;12.50;99.90;;;;;;5074977;28;19931;-56
2022/10/07 07:12:47;;;;;;;;;;;12.60;99.90;;;;;;5058674;28;19924;-56
2022/10/07 07:15:16;;;;;;;;;;;12.60;99.90;;;;;;5072491;28;19939;-56
2022/10/07 07:17:43;;;;;;;;;;;12.60;99.90;;;;;;5078955;28;19944;-56
2022/10/07 07:20:13;;;;;;;;;;;12.80;99.90;;;;;;5078306;28;20305;-56
2022/10/07 07:22:40;;;;;;;;;;;12.80;99.90;;;;;;5075302;28;20682;-56
2022/10/07 07:25:09;;;;;;;;;;;12.90;99.90;;;;;;5073198;28;19951;-56
2022/10/07 07:27:37;;;;;;;;;;;13.00;99.90;;;;;;5071404;28;19935;-56
2022/10/07 07:30:06;;;;;;;;;;;13.00;99.90;;;;;;5086565;28;19934;-56
2022/10/07 07:32:34;;;;;;;;;;;13.00;99.90;;;;;;5069179;28;19932;-56
2022/10/07 07:35:03;;;;;;;;;;;13.10;99.90;;;;;;5072673;28;19928;-56
2022/10/07 07:37:31;;;;;;;;;;;13.20;99.90;;;;;;5065806;28;19940;-56
2022/10/07 07:39:59;;;;;;;;;;;13.20;99.90;;;;;;5086290;28;20504;-56
2022/10/07 07:42:26;;;;;;;;;;;13.20;99.90;;;;;;5086971;28;19928;-56
2022/10/07 07:44:55;;;;;;;;;;;13.30;99.90;;;;;;5070952;28;19928;-56
2022/10/07 07:47:25;;;;;;;;;;;13.30;99.90;;;;;;5047021;28;20399;-57
2022/10/07 07:49:58;;;;;;;;;;;13.40;99.90;;;;;;5071728;28;19924;-56
2022/10/07 07:52:33;;;;;;;;;;;13.40;99.90;;;;;;5083665;28;19928;-56
2022/10/07 07:55:03;;;;;;;;;;;13.50;99.90;;;;;;5082809;28;19924;-56
2022/10/07 07:57:31;;;;;;;;;;;13.50;99.90;;;;;;5079984;28;19924;-56
2022/10/07 08:00:06;;;;;;;;;;;13.60;99.90;;;;;;5066401;28;19932;-56
2022/10/07 08:02:58;;;;;;;;;;;13.60;99.90;;;;;;5094328;28;19924;-56
2022/10/07 08:05:26;;;;;;;;;;;13.70;99.90;;;;;;5065680;28;19932;-55
2022/10/07 08:07:56;;;;;;;;;;;13.70;99.90;;;;;;5065646;28;19924;-56
2022/10/07 08:10:25;;;;;;;;;;;13.80;99.90;;;;;;5079563;28;20235;-55
2022/10/07 08:12:54;;;;;;;;;;;13.80;99.90;;;;;;5084534;28;19925;-55
2022/10/07 08:15:22;;;;;;;;;;;13.80;99.90;;;;;;5082996;28;19924;-56
2022/10/07 08:17:50;;;;;;;;;;;13.90;99.90;;;;;;5070750;28;19924;-55
2022/10/07 08:20:18;;;;;;;;;;;13.90;99.90;;;;;;5081804;28;19931;-56
2022/10/07 08:22:46;;;;;;;;;;;13.90;99.90;;;;;;5060013;28;19935;-55
2022/10/07 08:25:15;;;;;;;;;;;13.90;99.90;;;;;;5066675;28;20424;-55
2022/10/07 08:27:44;;;;;;;;;;;13.90;99.90;;;;;;5076300;28;20403;-55
2022/10/07 08:30:12;;;;;;;;;;;14.00;99.90;;;;;;5063302;28;20355;-55
2022/10/07 08:32:40;;;;;;;;;;;14.10;99.90;;;;;;5097062;28;19928;-55
2022/10/07 08:35:07;;;;;;;;;;;14.20;99.90;;;;;;5083645;28;19927;-55
2022/10/07 08:37:35;;;;;;;;;;;14.30;99.90;;;;;;5073236;28;20088;-55
2022/10/07 08:40:03;;;;;;;;;;;15.60;99.90;;;;;;5070317;28;19924;-56
2022/10/07 08:42:38;;;;;;;;;;;14.50;99.90;;;;;;5071633;28;20287;-55
2022/10/07 08:45:09;;;;;;;;;;;14.60;99.90;;;;;;5072020;28;19924;-55
2022/10/07 08:47:44;;;;;;;;;;;14.70;99.90;;;;;;5066710;28;19924;-55
2022/10/07 08:50:18;;;;;;;;;;;14.80;99.90;;;;;;5084067;28;19924;-55
2022/10/07 08:52:49;;;;;;;;;;;14.90;99.90;;;;;;5085392;28;19928;-55
2022/10/07 08:55:32;;;;;;;;;;;14.90;99.90;;;;;;5067594;28;20123;-56
2022/10/07 08:58:29;;;;;;;;;;;14.90;99.90;;;;;;5084244;28;19924;-55
2022/10/07 09:01:06;;;;;;;;;;;15.00;99.90;;;;;;5085466;28;20380;-55
2022/10/07 09:03:36;;;;;;;;;;;15.00;99.90;;;;;;5091401;28;19925;-56
2022/10/07 09:06:09;;;;;;;;;;;15.00;99.90;;;;;;5090015;28;20295;-56
2022/10/07 09:08:39;;;;;;;;;;;15.10;99.90;;;;;;5073590;28;19932;-56
2022/10/07 09:11:14;;;;;;;;;;;15.10;99.90;;;;;;5102818;28;19924;-55
2022/10/07 09:13:47;;;;;;;;;;;15.10;99.90;;;;;;5089721;28;19948;-55
2022/10/07 09:16:22;;;;;;;;;;;15.10;99.90;;;;;;5085334;28;19924;-55
2022/10/07 09:18:52;;;;;;;;;;;15.10;99.90;;;;;;5090203;28;19946;-58
2022/10/07 09:21:23;;;;;;;;;;;15.10;99.90;;;;;;5089698;28;19924;-56
2022/10/07 09:23:54;;;;;;;;;;;15.10;99.90;;;;;;5073013;28;19928;-56
2022/10/07 09:26:24;;;;;;;;;;;15.10;99.90;;;;;;5069376;28;19931;-56
2022/10/07 09:28:51;;;;;;;;;;;15.00;99.90;;;;;;5078830;28;20391;-56
2022/10/07 09:31:20;;;;;;;;;;;15.00;99.90;;;;;;5084922;28;19931;-56
2022/10/07 09:33:52;;;;;;;;;;;15.00;99.90;;;;;;5088650;28;19931;-56
2022/10/07 09:36:20;;;;;;;;;;;15.00;99.90;;;;;;5082548;28;19924;-56
2022/10/07 09:38:49;;;;;;;;;;;15.00;99.90;;;;;;5075950;28;19931;-56
2022/10/07 09:41:31;;;;;;;;;;;15.00;99.90;;;;;;5104352;28;19923;-56
2022/10/07 09:44:03;;;;;;;;;;;15.00;99.90;;;;;;5094755;28;20425;-56
2022/10/07 09:46:31;;;;;;;;;;;15.00;99.90;;;;;;5076400;28;19932;-56
2022/10/07 09:49:03;;;;;;;;;;;15.00;99.90;;;;;;5086020;28;19925;-55
2022/10/07 09:51:31;;;;;;;;;;;15.00;99.90;;;;;;5089780;28;19924;-56
2022/10/07 09:54:03;;;;;;;;;;;15.00;99.90;;;;;;5070349;28;20023;-56
2022/10/07 09:56:30;;;;;;;;;;;14.90;99.90;;;;;;5080124;28;19928;-56
2022/10/07 09:59:18;;;;;;;;;;;14.90;99.90;;;;;;5069133;28;19933;-56
2022/10/07 10:02:12;;;;;;;;;;;14.90;99.90;;;;;;5074707;28;19925;-56
2022/10/07 10:04:51;;;;;;;;;;;14.90;99.90;;;;;;5084270;28;19924;-57
2022/10/07 10:07:18;;;;;;;;;;;14.90;99.90;;;;;;5085139;28;19928;-56
2022/10/07 10:09:47;;;;;;;;;;;15.00;99.90;;;;;;5072224;28;20093;-56
2022/10/07 10:12:17;;;;;;;;;;;15.00;99.90;;;;;;5074363;28;19932;-56
2022/10/07 10:14:48;;;;;;;;;;;15.10;99.90;;;;;;5089790;28;19931;-56
2022/10/07 10:17:25;;;;;;;;;;;15.20;99.90;;;;;;5068897;28;20474;-56
2022/10/07 10:19:52;;;;;;;;;;;15.20;99.90;;;;;;5084672;28;20295;-56
2022/10/07 10:22:27;;;;;;;;;;;15.40;99.90;;;;;;5086889;28;19924;-57
2022/10/07 10:27:56;;;;;;;;;;;15.60;99.90;;;;;;5072462;28;19931;-56
2022/10/07 10:30:23;;;;;;;;;;;15.60;99.90;;;;;;5080111;28;20415;-57
2022/10/07 10:33:10;;;;;;;;;;;15.60;99.90;;;;;;5075367;28;19924;-56
2022/10/07 10:35:44;;;;;;;;;;;15.60;99.90;;;;;;5075427;28;19935;-56
2022/10/07 10:38:17;;;;;;;;;;;15.70;99.90;;;;;;5078016;28;20292;-56
2022/10/07 10:41:00;;;;;;;;;;;15.70;99.90;;;;;;5075113;28;20455;-56
2022/10/07 10:43:34;;;;;;;;;;;15.70;99.90;;;;;;5075933;28;19935;-57
2022/10/07 10:46:20;;;;;;;;;;;15.70;99.90;;;;;;5058976;28;19928;-56
2022/10/07 10:49:00;;;;;;;;;;;15.70;99.90;;;;;;5071417;28;19926;-57
2022/10/07 10:51:33;;;;;;;;;;;15.70;99.90;;;;;;5097723;28;19924;-56
2022/10/07 10:54:10;;;;;;;;;;;15.80;99.90;;;;;;5084855;28;19924;-56
2022/10/07 10:56:44;;;;;;;;;;;15.80;99.90;;;;;;5078824;28;19924;-59
2022/10/07 10:59:31;;;;;;;;;;;15.90;99.90;;;;;;5070354;28;19928;-56
2022/10/07 11:02:13;;;;;;;;;;;15.90;99.90;;;;;;5070196;28;19932;-56
2022/10/07 11:04:42;;;;;;;;;;;15.90;99.90;;;;;;5068144;28;19928;-56
2022/10/07 11:07:22;;;;;;;;;;;15.90;99.90;;;;;;5069052;28;19924;-56
2022/10/07 11:10:01;;;;;;;;;;;15.90;99.90;;;;;;5076346;28;19923;-56
2022/10/07 11:12:29;;;;;;;;;;;15.80;99.90;;;;;;5105836;28;19965;-56
2022/10/07 11:15:00;;;;;;;;;;;15.70;99.90;;;;;;5105934;28;19930;-56
2022/10/07 11:17:30;;;;;;;;;;;15.60;99.90;;;;;;5109404;28;19924;-56
2022/10/07 11:20:11;;;;;;;;;;;15.40;99.90;;;;;;5103180;28;19924;-56
2022/10/07 11:22:41;;;;;;;;;;;15.00;99.90;;;;;;5087373;28;20396;-56
2022/10/07 11:25:30;;;;;;;;;;;14.70;99.90;;;;;;5083210;28;21272;-55
2022/10/07 11:28:02;;;;;;;;;;;14.40;99.90;;;;;;5068850;28;19929;-55
2022/10/07 11:30:35;;;;;;;;;;;14.10;99.90;;;;;;5078444;28;20371;-56
2022/10/07 11:33:05;;;;;;;;;;;13.90;99.90;;;;;;5087586;28;20379;-55
2022/10/07 11:35:47;;;;;;;;;;;13.70;99.90;;;;;;5089015;28;19931;-55
2022/10/07 11:38:17;;;;;;;;;;;13.60;99.90;;;;;;5067360;28;19924;-55
2022/10/07 11:40:56;;;;;;;;;;;13.50;99.90;;;;;;5080297;28;19928;-55
2022/10/07 11:43:26;;;;;;;;;;;13.40;99.90;;;;;;5092608;28;19947;-56
2022/10/07 11:45:59;;;;;;;;;;;13.30;99.90;;;;;;5090619;28;19925;-54
2022/10/07 11:48:37;;;;;;;;;;;13.30;99.90;;;;;;5071972;28;19928;-55
2022/10/07 11:51:07;;;;;;;;;;;13.30;99.90;;;;;;5076678;28;20411;-54
2022/10/07 11:53:38;;;;;;;;;;;13.20;99.90;;;;;;5077152;28;19934;-54
2022/10/07 11:56:19;;;;;;;;;;;13.20;99.90;;;;;;5075807;28;19928;-54
2022/10/07 11:58:54;;;;;;;;;;;13.20;99.90;;;;;;5070843;28;19925;-54
2022/10/07 12:01:25;;;;;;;;;;;13.20;99.90;;;;;;5075244;28;19924;-54
2022/10/07 12:04:14;;;;;;;;;;;13.20;99.90;;;;;;5084981;28;20287;-54
2022/10/07 12:07:02;;;;;;;;;;;13.20;99.90;;;;;;5071648;28;19936;-54
2022/10/07 12:09:53;;;;;;;;;;;13.20;99.90;;;;;;5079106;28;19935;-54
2022/10/07 12:12:23;;;;;;;;;;;13.20;99.90;;;;;;5081244;28;20396;-54
2022/10/07 12:14:59;;;;;;;;;;;13.30;99.90;;;;;;5086831;28;20407;-55
2022/10/07 12:17:28;;;;;;;;;;;13.30;99.90;;;;;;5083330;28;19924;-55
2022/10/07 12:20:15;;;;;;;;;;;13.30;99.90;;;;;;5094098;28;19924;-54
2022/10/07 12:22:42;;;;;;;;;;;13.30;99.90;;;;;;5084253;28;19959;-53
2022/10/07 12:25:28;;;;;;;;;;;13.30;99.90;;;;;;5074708;28;19928;-54
2022/10/07 12:27:55;;;;;;;;;;;13.30;99.90;;;;;;5082582;28;19935;-54
2022/10/07 12:30:36;;;;;;;;;;;13.20;99.90;;;;;;5079570;28;19924;-54
2022/10/07 12:33:14;;;;;;;;;;;13.20;99.90;;;;;;5082044;28;20299;-53
2022/10/07 12:35:42;;;;;;;;;;;13.10;99.90;;;;;;5083711;28;19924;-53
2022/10/07 12:38:15;;;;;;;;;;;13.00;99.90;;;;;;5080111;28;19940;-53
2022/10/07 12:41:09;;;;;;;;;;;13.00;99.90;;;;;;5081689;28;19928;-54
2022/10/07 12:43:36;;;;;;;;;;;12.90;99.90;;;;;;5081134;28;20292;-54
2022/10/07 12:46:09;;;;;;;;;;;12.80;99.90;;;;;;5081495;28;20387;-54
2022/10/07 12:48:44;;;;;;;;;;;12.80;99.90;;;;;;5076008;28;19939;-54
2022/10/07 12:51:18;;;;;;;;;;;12.60;99.90;;;;;;5081251;28;19928;-54
2022/10/07 12:53:46;;;;;;;;;;;12.60;99.90;;;;;;5079906;28;19924;-54
2022/10/07 12:56:19;;;;;;;;;;;12.50;99.90;;;;;;5077836;28;19928;-54
2022/10/07 13:02:06;;;;;;;;;;;12.40;99.90;;;;;;5071846;28;19924;-54
2022/10/07 13:04:53;;;;;;;;;;;12.50;99.90;;;;;;5072115;28;19924;-54
2022/10/07 13:07:33;;;;;;;;;;;12.50;99.90;;;;;;5074455;28;19928;-54
2022/10/07 13:10:19;;;;;;;;;;;12.50;99.90;;;;;;5076748;28;19928;-55
2022/10/07 13:12:59;;;;;;;;;;;12.50;99.90;;;;;;5076349;27;20406;-55
2022/10/07 13:15:32;;;;;;;;;;;12.50;99.90;;;;;;5091272;28;19924;-55
2022/10/07 13:18:12;;;;;;;;;;;12.50;99.90;;;;;;5091166;28;19935;-55
2022/10/07 13:20:46;;;;;;;;;;;12.50;99.90;;;;;;5081173;28;19930;-55
2022/10/07 13:23:19;;;;;;;;;;;12.50;99.90;;;;;;5074131;28;19924;-55
2022/10/07 13:25:54;;;;;;;;;;;12.50;99.90;;;;;;5086106;28;19924;-55
2022/10/07 13:28:23;;;;;;;;;;;12.50;99.90;;;;;;5089490;28;19932;-55
2022/10/07 13:30:51;;;;;;;;;;;12.50;99.90;;;;;;5080131;28;19931;-55
2022/10/07 13:33:19;;;;;;;;;;;12.50;99.90;;;;;;5075878;28;19925;-55
2022/10/07 13:35:47;;;;;;;;;;;12.60;99.90;;;;;;5075240;28;19969;-55
2022/10/07 13:38:20;;;;;;;;;;;12.60;99.90;;;;;;5068984;28;19925;-55
2022/10/07 13:41:02;;;;;;;;;;;12.70;99.90;;;;;;5070387;28;19924;-55
2022/10/07 13:43:30;;;;;;;;;;;12.70;99.90;;;;;;5087127;28;19928;-55
2022/10/07 13:45:59;;;;;;;;;;;12.80;99.90;;;;;;5095037;28;19924;-55
2022/10/07 13:48:28;;;;;;;;;;;12.90;99.90;;;;;;5070509;28;19931;-55
2022/10/07 13:50:57;;;;;;;;;;;13.40;99.90;;;;;;5070911;28;19933;-55
2022/10/07 13:53:26;;;;;;;;;;;13.80;99.90;;;;;;5084938;28;20303;-55
2022/10/07 13:56:08;;;;;;;;;;;14.00;99.90;;;;;;5089098;28;19924;-55
2022/10/07 13:58:35;;;;;;;;;;;14.60;99.90;;;;;;5079351;28;20387;-55
2022/10/07 14:01:03;;;;;;;;;;;14.00;99.90;;;;;;5070214;28;19931;-55
2022/10/07 14:03:31;;;;;;;;;;;14.00;99.90;;;;;;5082129;28;19924;-57
2022/10/07 14:06:00;;;;;;;;;;;13.90;99.90;;;;;;5072752;28;19924;-56
2022/10/07 14:08:28;;;;;;;;;;;13.90;99.90;;;;;;5070902;28;19925;-56
2022/10/07 14:10:55;;;;;;;;;;;13.90;99.90;;;;;;5097681;28;19924;-55
2022/10/07 14:13:22;;;;;;;;;;;13.90;99.90;;;;;;5074972;28;19933;-55
2022/10/07 14:15:51;;;;;;;;;;;14.00;99.90;;;;;;5069967;28;19924;-56
2022/10/07 14:18:19;;;;;;;;;;;14.10;99.90;;;;;;5073111;28;19928;-55
2022/10/07 14:21:13;;;;;;;;;;;14.20;99.90;;;;;;5086969;28;19924;-55
2022/10/07 14:23:45;;;;;;;;;;;14.40;99.90;;;;;;5065964;28;20295;-56
2022/10/07 14:26:15;;;;;;;;;;;14.30;99.90;;;;;;5069108;28;19932;-56
2022/10/07 14:28:42;;;;;;;;;;;14.40;99.90;;;;;;5069983;28;20423;-56
2022/10/07 14:37:12;;;;;;;;;;;14.40;99.90;;;;;;5072997;28;19924;-56
2022/10/07 14:39:41;;;;;;;;;;;14.20;99.90;;;;;;5086412;28;19928;-56
2022/10/07 14:42:10;;;;;;;;;;;14.00;99.90;;;;;;5080873;28;19924;-56
2022/10/07 14:44:37;;;;;;;;;;;13.90;99.90;;;;;;5073226;28;20305;-56
2022/10/07 14:47:09;;;;;;;;;;;13.90;99.90;;;;;;5075193;28;19924;-56
2022/10/07 14:49:37;;;;;;;;;;;13.90;99.90;;;;;;5078392;28;19928;-56
2022/10/07 14:52:05;;;;;;;;;;;13.80;99.90;;;;;;5073064;28;19932;-56
2022/10/07 14:54:33;;;;;;;;;;;13.90;99.90;;;;;;5078127;28;19935;-56
2022/10/07 14:57:01;;;;;;;;;;;13.90;99.90;;;;;;5091264;28;19939;-56
2022/10/07 14:59:28;;;;;;;;;;;14.00;99.90;;;;;;5076786;28;19925;-56
2022/10/07 15:01:56;;;;;;;;;;;14.00;99.90;;;;;;5071372;28;19939;-56